KCFD

Coulter Field Airport

Bryan, Texas, USA
METAR KCFD 191515Z AUTO 20012G20KT 10SM BKN028 30/22 A2995 RMK AO2 T03040224
Observed Flight Rules
Aug-19 @ 15:15 UTC (24 minutes ago) Marginal Visual Flight Rules
Wind Visibility Clouds
200° at 12 knots
 Gusting to 20 knots
10 miles
  • Broken at 2,800' AGL
Temperatures Readings
Current 30°C / 86°F
Dewpoint 22°C / 72°F
Humidity 62%
Altimeter 29.95" Hg
Pressure 1014 hPa
Elevation 112
METAR KCFD 191515Z AUTO 20012G20KT 10SM BKN028 30/22 A2995 RMK AO2 T03040224
Observed Flight Rules
Aug-19 @ 15:15 UTC
(24 minutes ago)
MVFR
Wind Visibility
200° at 12 knots
 Gusting to 20 knots
10 miles
Clouds
  • Broken at 2,800' AGL
Temperature Dewpoint
30°C / 86°F 22°C / 72°F
Humidity Altimeter Pressure
62% 29.95" Hg 1014 hPa